createdAt,value
2018-03-27T00:04:39.791Z,1014
2018-03-27T00:10:07.826Z,1014
2018-03-27T00:15:34.821Z,1014
2018-03-27T00:21:01.955Z,1014
2018-03-27T00:26:28.872Z,1013
2018-03-27T00:31:55.887Z,1014
2018-03-27T00:37:23.935Z,1014
2018-03-27T00:42:51.911Z,1014
2018-03-27T00:48:18.943Z,1014
2018-03-27T00:53:45.999Z,1014
2018-03-27T00:59:14.000Z,1014
2018-03-27T01:04:41.196Z,1014
2018-03-27T01:10:08.029Z,1014
2018-03-27T01:15:35.042Z,1014
2018-03-27T01:21:02.046Z,1014
2018-03-27T01:26:29.066Z,1014
2018-03-27T01:31:57.015Z,1014
2018-03-27T01:37:25.078Z,1013
2018-03-27T01:42:53.061Z,1013
2018-03-27T01:48:21.037Z,1014
2018-03-27T01:53:48.036Z,1014
2018-03-27T01:59:16.052Z,1013
2018-03-27T02:04:43.078Z,1013
2018-03-27T02:10:11.074Z,1013
2018-03-27T02:15:38.077Z,1013
2018-03-27T02:21:05.053Z,1013
2018-03-27T02:26:33.044Z,1013
2018-03-27T02:32:01.068Z,1013
2018-03-27T02:37:28.092Z,1013
2018-03-27T02:42:56.100Z,1013
2018-03-27T02:48:24.087Z,1013
2018-03-27T02:53:51.112Z,1013
2018-03-27T02:59:19.027Z,1013
2018-03-27T03:04:46.997Z,1013
2018-03-27T03:10:14.047Z,1013
2018-03-27T03:15:41.043Z,1013
2018-03-27T03:21:09.056Z,1013
2018-03-27T03:26:37.054Z,1013
2018-03-27T03:32:05.060Z,1013
2018-03-27T03:37:33.091Z,1013
2018-03-27T03:43:00.131Z,1013
2018-03-27T03:48:33.103Z,1013
2018-03-27T03:53:55.096Z,1013
2018-03-27T03:59:22.109Z,1013
2018-03-27T04:04:50.144Z,1013
2018-03-27T04:10:18.130Z,1013
2018-03-27T04:15:45.228Z,1013
2018-03-27T04:21:13.288Z,1013
2018-03-27T04:26:40.223Z,1013
2018-03-27T04:32:08.309Z,1013
2018-03-27T04:37:36.212Z,1013
2018-03-27T04:43:03.414Z,1013
2018-03-27T04:48:31.246Z,1013
2018-03-27T04:53:58.288Z,1013
2018-03-27T04:59:25.761Z,1013
2018-03-27T05:04:52.307Z,1013
2018-03-27T05:10:20.382Z,1013
2018-03-27T05:15:48.362Z,1013
2018-03-27T05:21:15.473Z,1013
2018-03-27T05:26:43.367Z,1013
2018-03-27T05:32:11.374Z,1013
2018-03-27T05:37:39.394Z,1013
2018-03-27T05:43:06.389Z,1013
2018-03-27T05:48:33.361Z,1013
2018-03-27T05:54:00.379Z,1013
2018-03-27T05:59:28.423Z,1013
2018-03-27T06:04:56.355Z,1013
2018-03-27T06:10:23.343Z,1013
2018-03-27T06:15:51.345Z,1013
2018-03-27T06:21:18.334Z,1013
2018-03-27T06:26:45.393Z,1013
2018-03-27T06:32:12.393Z,1013
2018-03-27T06:37:40.383Z,1013
2018-03-27T06:43:07.368Z,1013
2018-03-27T06:48:35.348Z,1013
2018-03-27T06:54:03.345Z,1013
2018-03-27T06:59:31.346Z,1013
2018-03-27T07:04:59.376Z,1013
2018-03-27T07:10:27.399Z,1013
2018-03-27T07:15:54.447Z,1013
2018-03-27T07:21:21.524Z,1013
2018-03-27T07:26:49.604Z,1013
2018-03-27T07:32:16.508Z,1013
2018-03-27T07:37:43.551Z,1013
2018-03-27T07:43:11.537Z,1013
2018-03-27T07:48:39.646Z,1013
2018-03-27T07:54:07.725Z,1013
2018-03-27T07:59:34.735Z,1013
2018-03-27T08:05:02.815Z,1013
2018-03-27T08:10:29.859Z,1013
2018-03-27T08:15:56.960Z,1013
2018-03-27T08:21:24.010Z,1013
2018-03-27T08:26:52.063Z,1013
2018-03-27T08:32:20.277Z,1013
2018-03-27T08:37:48.243Z,1013
2018-03-27T08:43:15.334Z,1012
2018-03-27T08:48:43.498Z,1012
2018-03-27T08:54:10.585Z,1012
2018-03-27T08:59:37.723Z,1012
2018-03-27T09:05:05.838Z,1012
2018-03-27T09:10:34.000Z,1012
2018-03-27T09:16:02.216Z,1012
2018-03-27T09:21:29.469Z,1012
2018-03-27T09:26:56.670Z,1012
2018-03-27T09:32:25.076Z,1012
2018-03-27T09:37:52.064Z,1012
2018-03-27T09:43:19.326Z,1012
2018-03-27T09:48:47.614Z,1012
2018-03-27T09:54:15.862Z,1012
2018-03-27T09:59:43.101Z,1012
2018-03-27T10:05:11.621Z,1012
2018-03-27T10:10:38.598Z,1012
2018-03-27T10:16:06.924Z,1012
2018-03-27T10:21:35.356Z,1012
2018-03-27T10:27:03.550Z,1012
2018-03-27T10:32:30.866Z,1012
2018-03-27T10:37:59.186Z,1012
2018-03-27T10:43:26.500Z,1012
2018-03-27T10:48:53.889Z,1012
2018-03-27T10:54:21.196Z,1012
2018-03-27T10:59:49.565Z,1012
2018-03-27T11:05:17.777Z,1012
2018-03-27T11:10:46.102Z,1012
2018-03-27T11:16:14.544Z,1012
2018-03-27T11:21:42.716Z,1012
2018-03-27T11:27:10.066Z,1012
2018-03-27T11:32:38.376Z,1012
2018-03-27T11:38:06.738Z,1011
2018-03-27T11:43:34.075Z,1011
2018-03-27T11:49:01.450Z,1011
2018-03-27T11:54:28.899Z,1011
2018-03-27T11:59:57.258Z,1011
2018-03-27T12:05:24.873Z,1011
2018-03-27T12:10:53.144Z,1011
2018-03-27T12:16:21.659Z,1011
2018-03-27T12:21:50.155Z,1011
2018-03-27T12:27:18.853Z,1011
2018-03-27T12:32:46.597Z,1011
2018-03-27T12:38:15.542Z,1011
2018-03-27T12:43:43.355Z,1010
2018-03-27T12:49:12.112Z,1010
2018-03-27T12:54:40.955Z,1010
2018-03-27T13:00:09.671Z,1010
2018-03-27T13:05:37.409Z,1010
2018-03-27T13:11:06.056Z,1010
2018-03-27T13:16:34.612Z,1010
2018-03-27T13:22:03.203Z,1010
2018-03-27T13:27:31.681Z,1010
2018-03-27T13:32:59.510Z,1010
2018-03-27T13:38:27.170Z,1010
2018-03-27T13:43:54.987Z,1010
2018-03-27T13:49:22.812Z,1010
2018-03-27T13:54:51.537Z,1010
2018-03-27T14:00:19.310Z,1010
2018-03-27T14:05:46.680Z,1010
2018-03-27T14:11:15.131Z,1010
2018-03-27T14:16:43.738Z,1010
2018-03-27T14:22:10.985Z,1010
2018-03-27T14:27:39.381Z,1010
2018-03-27T14:33:07.766Z,1010
2018-03-27T14:38:35.172Z,1010
2018-03-27T14:44:02.476Z,1010
2018-03-27T14:49:30.816Z,1010
2018-03-27T14:54:58.143Z,1010
2018-03-27T15:00:26.443Z,1010
2018-03-27T15:05:53.840Z,1010
2018-03-27T15:11:22.096Z,1010
2018-03-27T15:16:50.473Z,1010
2018-03-27T15:22:18.667Z,1009
2018-03-27T15:27:45.951Z,1009
2018-03-27T15:33:13.238Z,1009
2018-03-27T15:38:41.550Z,1009
2018-03-27T15:44:09.819Z,1009
2018-03-27T15:49:37.051Z,1009
2018-03-27T15:55:04.353Z,1009
2018-03-27T16:00:32.706Z,1009
2018-03-27T16:05:59.859Z,1009
2018-03-27T16:11:27.119Z,1009
2018-03-27T16:16:55.303Z,1009
2018-03-27T16:22:22.535Z,1009
2018-03-27T16:27:50.729Z,1009
2018-03-27T16:33:17.969Z,1009
2018-03-27T16:38:46.356Z,1009
2018-03-27T16:44:14.314Z,1009
2018-03-27T16:49:41.495Z,1009
2018-03-27T16:55:09.689Z,1009
2018-03-27T17:00:36.811Z,1009
2018-03-27T17:06:04.078Z,1009
2018-03-27T17:11:32.337Z,1009
2018-03-27T17:17:00.418Z,1009
2018-03-27T17:22:28.539Z,1009
2018-03-27T17:27:56.708Z,1009
2018-03-27T17:33:24.844Z,1009
2018-03-27T17:38:52.985Z,1009
2018-03-27T17:44:21.231Z,1009
2018-03-27T17:49:49.489Z,1009
2018-03-27T17:55:17.304Z,1009
2018-03-27T18:00:45.392Z,1009
2018-03-27T18:06:12.507Z,1009
2018-03-27T18:11:40.660Z,1009
2018-03-27T18:17:07.722Z,1009
2018-03-27T18:22:35.805Z,1009
2018-03-27T18:28:02.953Z,1009
2018-03-27T18:33:30.998Z,1009
2018-03-27T18:38:58.102Z,1009
2018-03-27T18:44:25.156Z,1009
2018-03-27T18:49:53.234Z,1009
2018-03-27T18:55:21.337Z,1009
2018-03-27T19:00:48.450Z,1009
2018-03-27T19:06:15.568Z,1009
2018-03-27T19:11:42.628Z,1009
2018-03-27T19:17:10.732Z,1009
2018-03-27T19:22:38.796Z,1009
2018-03-27T19:28:06.884Z,1009
2018-03-27T19:33:34.002Z,1009
2018-03-27T19:39:01.074Z,1009
2018-03-27T19:44:29.123Z,1009
2018-03-27T19:49:57.207Z,1009
2018-03-27T19:55:24.241Z,1009
2018-03-27T20:00:51.645Z,1009
2018-03-27T20:06:18.577Z,1008
2018-03-27T20:11:45.572Z,1009
2018-03-27T20:17:13.470Z,1008
2018-03-27T20:22:40.575Z,1008
2018-03-27T20:28:08.676Z,1008
2018-03-27T20:33:35.634Z,1008
2018-03-27T20:39:03.633Z,1008
2018-03-27T20:44:30.693Z,1008
2018-03-27T20:49:57.780Z,1008
2018-03-27T20:55:24.778Z,1008
2018-03-27T21:00:52.809Z,1008
2018-03-27T21:06:19.835Z,1008
2018-03-27T21:11:46.925Z,1008
2018-03-27T21:17:14.930Z,1008
2018-03-27T21:22:43.160Z,1008
2018-03-27T21:28:09.995Z,1008
2018-03-27T21:33:36.986Z,1008
2018-03-27T21:39:04.192Z,1008
2018-03-27T21:44:30.992Z,1008
2018-03-27T21:49:58.068Z,1008
2018-03-27T21:55:26.053Z,1008
2018-03-27T22:00:53.042Z,1008
2018-03-27T22:06:20.055Z,1008
2018-03-27T22:11:47.045Z,1008
2018-03-27T22:17:14.038Z,1008
2018-03-27T22:22:42.085Z,1008
2018-03-27T22:28:10.102Z,1008
2018-03-27T22:33:38.071Z,1008
2018-03-27T22:39:05.031Z,1008
2018-03-27T22:44:33.090Z,1008
2018-03-27T22:50:00.132Z,1008
2018-03-27T22:55:27.094Z,1007
2018-03-27T23:00:54.981Z,1007
2018-03-27T23:06:21.955Z,1007
2018-03-27T23:11:48.939Z,1007
2018-03-27T23:17:16.882Z,1007
2018-03-27T23:22:44.829Z,1007
2018-03-27T23:28:12.747Z,1007
2018-03-27T23:33:40.710Z,1007
2018-03-27T23:39:07.619Z,1007
2018-03-27T23:44:35.716Z,1007
2018-03-27T23:50:03.462Z,1007
2018-03-27T23:55:31.409Z,1007
